createdAt,value
2019-03-20T00:00:42.096Z,5.08
2019-03-20T00:03:10.753Z,4.47
2019-03-20T00:05:39.381Z,4.42
2019-03-20T00:08:07.939Z,4.00
2019-03-20T00:10:36.803Z,4.47
2019-03-20T00:13:05.425Z,4.67
2019-03-20T00:15:34.059Z,4.45
2019-03-20T00:18:02.656Z,4.80
2019-03-20T00:20:31.216Z,4.75
2019-03-20T00:22:59.839Z,4.78
2019-03-20T00:25:28.525Z,5.58
2019-03-20T00:27:57.107Z,5.25
2019-03-20T00:30:25.726Z,4.53
2019-03-20T00:32:54.405Z,4.25
2019-03-20T00:35:23.055Z,4.30
2019-03-20T00:37:51.765Z,4.20
2019-03-20T00:40:20.505Z,4.20
2019-03-20T00:42:49.006Z,3.90
2019-03-20T00:45:21.776Z,4.10
2019-03-20T00:47:50.594Z,4.30
2019-03-20T00:50:20.025Z,4.45
2019-03-20T00:52:48.655Z,4.12
2019-03-20T00:55:18.206Z,4.08
2019-03-20T00:57:47.130Z,4.03
2019-03-20T01:00:20.665Z,3.52
2019-03-20T01:02:49.326Z,4.17
2019-03-20T01:05:17.954Z,3.37
2019-03-20T01:07:46.945Z,3.47
2019-03-20T01:10:23.465Z,3.85
2019-03-20T01:12:52.096Z,3.25
2019-03-20T01:15:20.920Z,3.92
2019-03-20T01:17:49.597Z,3.45
2019-03-20T01:20:24.628Z,4.28
2019-03-20T01:22:53.341Z,3.62
2019-03-20T01:25:22.470Z,4.12
2019-03-20T01:27:51.027Z,4.30
2019-03-20T01:30:36.565Z,4.05
2019-03-20T01:33:15.628Z,3.75
2019-03-20T01:35:44.326Z,4.47
2019-03-20T01:38:12.965Z,4.55
2019-03-20T01:40:41.623Z,3.92
2019-03-20T01:43:10.509Z,4.15
2019-03-20T01:45:39.121Z,4.33
2019-03-20T01:48:07.752Z,4.78
2019-03-20T01:50:36.511Z,4.90
2019-03-20T01:53:05.235Z,4.95
2019-03-20T01:55:33.966Z,4.87
2019-03-20T01:58:02.598Z,4.40
2019-03-20T02:00:31.384Z,5.00
2019-03-20T02:02:59.916Z,5.37
2019-03-20T02:05:35.991Z,5.15
2019-03-20T02:07:58.786Z,4.53
2019-03-20T02:10:27.412Z,5.25
2019-03-20T02:12:58.472Z,5.58
2019-03-20T02:15:37.613Z,5.78
2019-03-20T02:17:56.567Z,6.00
2019-03-20T02:20:25.224Z,5.50
2019-03-20T02:22:53.728Z,4.90
2019-03-20T02:25:22.212Z,5.05
2019-03-20T02:27:51.179Z,5.35
2019-03-20T02:30:22.831Z,4.70
2019-03-20T02:32:51.447Z,5.58
2019-03-20T02:35:20.097Z,5.05
2019-03-20T02:37:48.594Z,6.03
2019-03-20T02:40:17.223Z,5.22
2019-03-20T02:42:45.881Z,6.65
2019-03-20T02:45:15.619Z,6.95
2019-03-20T02:47:44.477Z,7.50
2019-03-20T02:50:15.045Z,7.25
2019-03-20T02:52:43.766Z,6.58
2019-03-20T02:55:13.094Z,6.33
2019-03-20T02:57:41.656Z,6.35
2019-03-20T03:00:22.923Z,6.33
2019-03-20T03:02:51.600Z,6.58
2019-03-20T03:05:20.341Z,6.12
2019-03-20T03:07:48.981Z,7.22
2019-03-20T03:10:18.564Z,6.53
2019-03-20T03:12:47.370Z,7.12
2019-03-20T03:15:16.614Z,6.92
2019-03-20T03:17:45.400Z,7.20
2019-03-20T03:20:17.058Z,6.85
2019-03-20T03:22:45.901Z,7.17
2019-03-20T03:25:15.098Z,6.62
2019-03-20T03:27:43.772Z,7.70
2019-03-20T03:30:19.073Z,7.75
2019-03-20T03:32:47.927Z,7.03
2019-03-20T03:35:19.442Z,7.65
2019-03-20T03:37:47.176Z,7.08
2019-03-20T03:40:17.815Z,7.60
2019-03-20T03:42:46.647Z,8.03
2019-03-20T03:45:16.254Z,7.40
2019-03-20T03:47:45.477Z,7.92
2019-03-20T03:50:14.214Z,8.15
2019-03-20T03:52:42.822Z,8.70
2019-03-20T03:55:13.554Z,7.90
2019-03-20T03:57:42.608Z,9.43
2019-03-20T04:00:13.881Z,8.78
2019-03-20T04:02:43.071Z,9.40
2019-03-20T04:05:11.695Z,9.88
2019-03-20T04:07:40.511Z,9.75
2019-03-20T04:10:11.839Z,8.90
2019-03-20T04:12:40.391Z,9.43
2019-03-20T04:15:11.629Z,10.20
2019-03-20T04:17:40.268Z,10.43
2019-03-20T04:20:13.972Z,10.78
2019-03-20T04:22:42.537Z,9.77
2019-03-20T04:25:12.300Z,9.50
2019-03-20T04:27:41.124Z,10.75
2019-03-20T04:30:12.265Z,10.50
2019-03-20T04:32:40.892Z,10.48
2019-03-20T04:35:10.670Z,11.03
2019-03-20T04:37:39.408Z,11.03
2019-03-20T04:40:10.749Z,11.08
2019-03-20T04:42:39.497Z,10.88
2019-03-20T04:45:12.392Z,10.35
2019-03-20T04:47:41.302Z,12.93
2019-03-20T04:50:12.745Z,11.65
2019-03-20T04:52:41.444Z,13.72
2019-03-20T04:55:10.430Z,11.90
2019-03-20T04:57:39.068Z,12.53
2019-03-20T05:00:21.292Z,12.85
2019-03-20T05:02:49.929Z,11.97
2019-03-20T05:05:18.777Z,12.37
2019-03-20T05:07:47.454Z,11.97
2019-03-20T05:10:17.956Z,12.18
2019-03-20T05:12:46.628Z,11.68
2019-03-20T05:15:15.579Z,11.83
2019-03-20T05:17:44.218Z,12.15
2019-03-20T05:20:17.415Z,11.25
2019-03-20T05:22:46.111Z,14.05
2019-03-20T05:25:14.833Z,12.43
2019-03-20T05:27:43.473Z,11.50
2019-03-20T05:30:14.924Z,12.28
2019-03-20T05:32:43.494Z,10.98
2019-03-20T05:35:12.146Z,11.78
2019-03-20T05:37:40.840Z,12.03
2019-03-20T05:40:16.510Z,11.65
2019-03-20T05:42:45.079Z,11.78
2019-03-20T05:45:18.481Z,12.03
2019-03-20T05:47:47.119Z,11.35
2019-03-20T05:50:16.567Z,11.88
2019-03-20T05:52:45.306Z,11.93
2019-03-20T05:55:14.257Z,10.70
2019-03-20T05:57:42.908Z,12.28
2019-03-20T06:00:19.938Z,12.65
2019-03-20T06:02:48.579Z,12.82
2019-03-20T06:05:17.235Z,11.05
2019-03-20T06:07:45.909Z,11.12
2019-03-20T06:10:15.658Z,11.97
2019-03-20T06:12:44.497Z,12.23
2019-03-20T06:15:14.384Z,12.98
2019-03-20T06:17:43.221Z,11.65
2019-03-20T06:20:15.438Z,10.32
2019-03-20T06:22:44.228Z,12.15
2019-03-20T06:25:14.832Z,10.32
2019-03-20T06:27:43.714Z,10.32
2019-03-20T06:30:20.299Z,10.70
2019-03-20T06:32:48.881Z,13.30
2019-03-20T06:35:17.516Z,10.15
2019-03-20T06:37:46.213Z,11.22
2019-03-20T06:40:18.230Z,9.60
2019-03-20T06:42:46.902Z,10.78
2019-03-20T06:45:17.607Z,11.10
2019-03-20T06:47:46.251Z,11.95
2019-03-20T06:50:17.225Z,15.53
2019-03-20T06:52:45.764Z,16.00
2019-03-20T06:55:14.598Z,12.33
2019-03-20T06:57:43.314Z,13.43
2019-03-20T07:00:40.734Z,13.05
2019-03-20T07:03:17.980Z,13.85
2019-03-20T07:06:10.676Z,12.07
2019-03-20T07:08:54.092Z,12.13
2019-03-20T07:11:21.470Z,11.25
2019-03-20T07:13:50.743Z,10.23
2019-03-20T07:16:19.514Z,10.50
2019-03-20T07:18:48.060Z,12.70
2019-03-20T07:21:18.637Z,11.75
2019-03-20T07:23:46.941Z,11.40
2019-03-20T07:26:15.616Z,12.65
2019-03-20T07:28:44.135Z,9.63
2019-03-20T07:31:15.751Z,12.30
2019-03-20T07:33:43.027Z,10.30
2019-03-20T07:36:11.668Z,11.08
2019-03-20T07:38:40.164Z,9.88
2019-03-20T07:41:08.712Z,9.50
2019-03-20T07:43:37.351Z,12.18
2019-03-20T07:46:05.997Z,12.60
2019-03-20T07:48:34.541Z,12.07
2019-03-20T07:51:03.261Z,11.65
2019-03-20T07:53:31.752Z,10.45
2019-03-20T07:56:00.361Z,10.50
2019-03-20T07:58:29.002Z,10.10
2019-03-20T08:00:57.642Z,9.15
2019-03-20T08:03:26.238Z,8.83
2019-03-20T08:05:54.741Z,10.08
2019-03-20T08:08:23.380Z,9.85
2019-03-20T08:10:52.058Z,9.35
2019-03-20T08:13:20.557Z,11.10
2019-03-20T08:15:49.195Z,12.28
2019-03-20T08:18:17.876Z,8.80
2019-03-20T08:20:46.509Z,9.20
2019-03-20T08:23:15.013Z,9.03
2019-03-20T08:25:43.847Z,12.45
2019-03-20T08:28:12.493Z,10.38
2019-03-20T08:30:40.988Z,9.13
2019-03-20T08:33:09.671Z,9.78
2019-03-20T08:35:38.305Z,7.42
2019-03-20T08:38:17.372Z,8.33
2019-03-20T08:40:37.152Z,8.45
2019-03-20T08:43:05.786Z,9.40
2019-03-20T08:45:34.439Z,10.23
2019-03-20T08:48:02.989Z,10.25
2019-03-20T08:50:31.556Z,7.80
2019-03-20T08:53:00.196Z,9.05
2019-03-20T08:55:28.877Z,8.95
2019-03-20T08:57:57.370Z,9.40
2019-03-20T09:00:26.109Z,9.30
2019-03-20T09:02:54.837Z,9.13
2019-03-20T09:05:23.480Z,10.65
2019-03-20T09:07:51.979Z,10.70
2019-03-20T09:10:29.923Z,8.90
2019-03-20T09:12:58.668Z,9.48
2019-03-20T09:15:27.304Z,9.55
2019-03-20T09:17:56.182Z,9.08
2019-03-20T09:20:25.387Z,10.18
2019-03-20T09:22:54.041Z,10.28
2019-03-20T09:25:24.889Z,9.25
2019-03-20T09:27:53.394Z,10.82
2019-03-20T09:30:26.683Z,9.75
2019-03-20T09:32:55.625Z,9.70
2019-03-20T09:35:24.264Z,10.08
2019-03-20T09:37:52.962Z,10.18
2019-03-20T09:40:27.293Z,9.80
2019-03-20T09:42:55.931Z,10.08
2019-03-20T09:45:25.507Z,10.15
2019-03-20T09:47:54.008Z,9.90
2019-03-20T09:50:29.638Z,9.55
2019-03-20T09:52:58.390Z,10.48
2019-03-20T09:55:26.891Z,10.68
2019-03-20T09:57:55.536Z,11.10
2019-03-20T10:00:26.260Z,10.35
2019-03-20T10:02:54.999Z,8.80
2019-03-20T10:05:23.637Z,9.58
2019-03-20T10:07:52.412Z,10.53
2019-03-20T10:10:28.858Z,9.75
2019-03-20T10:12:57.587Z,9.53
2019-03-20T10:15:28.052Z,10.13
2019-03-20T10:17:56.692Z,9.00
2019-03-20T10:20:25.503Z,9.03
2019-03-20T10:22:54.002Z,9.55
2019-03-20T10:25:22.724Z,13.15
2019-03-20T10:27:52.084Z,8.78
2019-03-20T10:30:24.928Z,8.95
2019-03-20T10:32:53.583Z,8.18
2019-03-20T10:35:22.796Z,7.90
2019-03-20T10:37:51.287Z,8.50
2019-03-20T10:40:23.385Z,9.68
2019-03-20T10:42:52.352Z,8.73
2019-03-20T10:45:21.256Z,7.92
2019-03-20T10:47:52.788Z,7.45
2019-03-20T10:50:28.056Z,8.65
2019-03-20T10:52:56.677Z,9.65
2019-03-20T10:55:25.306Z,8.15
2019-03-20T10:57:53.899Z,7.45
2019-03-20T11:00:23.537Z,8.18
2019-03-20T11:02:52.261Z,6.78
2019-03-20T11:05:21.042Z,6.28
2019-03-20T11:07:50.065Z,7.00
2019-03-20T11:10:21.302Z,7.17
2019-03-20T11:12:49.912Z,8.15
2019-03-20T11:15:20.493Z,6.97
2019-03-20T11:17:49.539Z,6.08
2019-03-20T11:20:20.124Z,6.62
2019-03-20T11:22:48.956Z,6.12
2019-03-20T11:25:26.928Z,5.75
2019-03-20T11:27:55.655Z,5.72
2019-03-20T11:30:31.168Z,6.10
2019-03-20T11:32:59.803Z,6.05
2019-03-20T11:35:28.461Z,5.55
2019-03-20T11:37:57.377Z,5.87
2019-03-20T11:40:28.354Z,5.65
2019-03-20T11:42:56.985Z,6.70
2019-03-20T11:45:25.748Z,7.28
2019-03-20T11:47:54.384Z,6.78
2019-03-20T11:50:28.013Z,6.20
2019-03-20T11:52:56.553Z,6.55
2019-03-20T11:55:25.128Z,6.58
2019-03-20T11:57:53.742Z,5.92
2019-03-20T12:00:23.562Z,5.95
2019-03-20T12:02:52.157Z,6.40
2019-03-20T12:05:20.720Z,6.47
2019-03-20T12:07:49.383Z,5.72
2019-03-20T12:10:29.156Z,5.30
2019-03-20T12:12:57.685Z,5.75
2019-03-20T12:15:26.317Z,5.65
2019-03-20T12:17:54.954Z,4.25
2019-03-20T12:20:27.083Z,5.75
2019-03-20T12:22:55.856Z,5.20
2019-03-20T12:25:32.981Z,5.40
2019-03-20T12:28:01.716Z,5.37
2019-03-20T12:30:35.186Z,5.10
2019-03-20T12:33:04.440Z,5.40
2019-03-20T12:35:35.358Z,5.17
2019-03-20T12:38:13.764Z,5.00
2019-03-20T12:40:34.610Z,5.67
2019-03-20T12:43:03.396Z,5.17
2019-03-20T12:45:36.959Z,5.72
2019-03-20T12:48:07.443Z,6.00
2019-03-20T12:50:36.069Z,5.53
2019-03-20T12:53:06.100Z,4.90
2019-03-20T12:55:34.773Z,5.25
2019-03-20T12:58:03.333Z,5.50
2019-03-20T13:00:32.160Z,5.67
2019-03-20T13:03:00.843Z,5.33
2019-03-20T13:05:29.564Z,5.60
2019-03-20T13:08:05.459Z,5.50
2019-03-20T13:10:28.760Z,5.50
2019-03-20T13:12:57.415Z,5.05
2019-03-20T13:15:27.072Z,4.95
2019-03-20T13:17:57.026Z,4.90
2019-03-20T13:20:25.931Z,3.95
2019-03-20T13:23:03.677Z,4.65
2019-03-20T13:25:32.304Z,4.22
2019-03-20T13:28:00.937Z,4.50
2019-03-20T13:30:44.632Z,5.22
2019-03-20T13:33:13.312Z,5.05
2019-03-20T13:35:42.551Z,4.95
2019-03-20T13:38:11.222Z,4.92
2019-03-20T13:40:39.964Z,5.25
2019-03-20T13:43:08.446Z,5.15
2019-03-20T13:45:36.976Z,4.42
2019-03-20T13:48:05.609Z,5.28
2019-03-20T13:50:34.219Z,5.12
2019-03-20T13:53:03.144Z,5.45
2019-03-20T13:55:31.780Z,5.17
2019-03-20T13:58:00.348Z,4.92
2019-03-20T14:00:29.026Z,4.62
2019-03-20T14:02:57.648Z,4.45
2019-03-20T14:05:26.282Z,4.25
2019-03-20T14:07:54.892Z,5.53
2019-03-20T14:10:32.854Z,5.37
2019-03-20T14:13:01.512Z,5.05
2019-03-20T14:15:30.142Z,5.65
2019-03-20T14:17:58.707Z,5.92
2019-03-20T14:20:30.611Z,5.37
2019-03-20T14:22:59.242Z,6.78
2019-03-20T14:25:27.877Z,5.12
2019-03-20T14:27:56.406Z,5.12
2019-03-20T14:30:26.975Z,5.37
2019-03-20T14:32:55.615Z,4.28
2019-03-20T14:35:24.267Z,5.80
2019-03-20T14:37:53.207Z,5.25
2019-03-20T14:40:36.743Z,5.05
2019-03-20T14:43:00.484Z,5.35
2019-03-20T14:45:29.143Z,6.08
2019-03-20T14:47:57.731Z,5.42
2019-03-20T14:50:33.019Z,5.33
2019-03-20T14:53:01.650Z,5.33
2019-03-20T14:55:30.449Z,5.58
2019-03-20T14:57:59.031Z,5.28
2019-03-20T15:00:31.332Z,4.40
2019-03-20T15:03:00.020Z,4.90
2019-03-20T15:05:28.672Z,4.67
2019-03-20T15:07:57.283Z,5.10
2019-03-20T15:10:29.388Z,5.53
2019-03-20T15:12:58.153Z,4.53
2019-03-20T15:15:45.373Z,5.12
2019-03-20T15:18:14.116Z,5.70
2019-03-20T15:20:42.743Z,5.47
2019-03-20T15:23:11.290Z,5.83
2019-03-20T15:25:39.854Z,5.37
2019-03-20T15:28:08.594Z,6.28
2019-03-20T15:30:37.270Z,5.45
2019-03-20T15:33:05.922Z,5.53
2019-03-20T15:35:34.418Z,6.22
2019-03-20T15:38:03.443Z,6.03
2019-03-20T15:40:32.168Z,5.25
2019-03-20T15:43:00.754Z,6.35
2019-03-20T15:45:29.803Z,6.05
2019-03-20T15:47:58.436Z,5.15
2019-03-20T15:50:28.036Z,5.58
2019-03-20T15:52:57.033Z,5.60
2019-03-20T15:55:27.877Z,5.70
2019-03-20T15:57:56.513Z,5.65
2019-03-20T16:00:25.284Z,5.37
2019-03-20T16:03:05.732Z,5.45
2019-03-20T16:05:34.405Z,6.60
2019-03-20T16:08:03.071Z,6.55
2019-03-20T16:10:31.633Z,6.92
2019-03-20T16:13:00.303Z,5.80
2019-03-20T16:15:28.943Z,6.80
2019-03-20T16:17:57.504Z,6.17
2019-03-20T16:20:26.149Z,6.70
2019-03-20T16:22:54.794Z,6.92
2019-03-20T16:25:24.439Z,8.05
2019-03-20T16:27:52.974Z,4.85
2019-03-20T16:30:26.895Z,6.17
2019-03-20T16:32:56.614Z,7.78
2019-03-20T16:35:25.268Z,6.33
2019-03-20T16:37:53.911Z,6.65
2019-03-20T16:40:27.040Z,7.15
2019-03-20T16:42:55.709Z,7.62
2019-03-20T16:45:33.133Z,7.97
2019-03-20T16:48:02.062Z,8.40
2019-03-20T16:50:30.812Z,9.18
2019-03-20T16:52:59.311Z,8.58
2019-03-20T16:55:27.985Z,6.50
2019-03-20T16:57:56.610Z,8.15
2019-03-20T17:00:29.946Z,8.03
2019-03-20T17:02:58.789Z,8.50
2019-03-20T17:05:32.407Z,8.95
2019-03-20T17:08:01.050Z,9.35
2019-03-20T17:10:35.061Z,9.65
2019-03-20T17:13:04.029Z,7.97
2019-03-20T17:15:34.165Z,8.88
2019-03-20T17:18:02.804Z,9.10
2019-03-20T17:20:31.480Z,9.03
2019-03-20T17:23:00.210Z,9.60
2019-03-20T17:25:29.408Z,9.40
2019-03-20T17:27:58.401Z,9.80
2019-03-20T17:30:32.765Z,10.28
2019-03-20T17:33:01.712Z,10.40
2019-03-20T17:35:30.647Z,9.75
2019-03-20T17:37:59.208Z,11.33
2019-03-20T17:40:28.651Z,10.58
2019-03-20T17:42:57.407Z,11.28
2019-03-20T17:45:27.455Z,11.18
2019-03-20T17:47:56.099Z,11.38
2019-03-20T17:50:29.274Z,11.45
2019-03-20T17:52:57.846Z,10.98
2019-03-20T17:55:26.944Z,13.70
2019-03-20T17:57:55.618Z,12.25
2019-03-20T18:00:39.758Z,12.43
2019-03-20T18:03:08.440Z,12.40
2019-03-20T18:05:37.375Z,12.70
2019-03-20T18:08:07.113Z,12.98
2019-03-20T18:10:35.802Z,12.73
2019-03-20T18:13:06.349Z,12.00
2019-03-20T18:15:35.069Z,11.90
2019-03-20T18:18:03.854Z,11.60
2019-03-20T18:20:32.627Z,11.57
2019-03-20T18:23:01.193Z,11.40
2019-03-20T18:25:29.801Z,12.33
2019-03-20T18:27:58.451Z,11.18
2019-03-20T18:30:32.909Z,12.15
2019-03-20T18:33:01.593Z,11.90
2019-03-20T18:35:30.229Z,12.45
2019-03-20T18:37:58.942Z,11.05
2019-03-20T18:40:30.441Z,13.10
2019-03-20T18:42:59.092Z,12.33
2019-03-20T18:45:28.225Z,12.47
2019-03-20T18:47:57.235Z,12.47
2019-03-20T18:50:25.870Z,12.47
2019-03-20T18:52:54.510Z,12.68
2019-03-20T18:55:23.295Z,13.35
2019-03-20T18:57:51.965Z,13.00
2019-03-20T19:00:23.092Z,12.13
2019-03-20T19:02:53.560Z,11.97
2019-03-20T19:05:25.295Z,12.13
2019-03-20T19:07:53.795Z,13.88
2019-03-20T19:10:22.552Z,14.15
2019-03-20T19:12:51.055Z,13.08
2019-03-20T19:15:19.694Z,14.53
2019-03-20T19:17:48.638Z,13.53
2019-03-20T19:20:19.759Z,12.55
2019-03-20T19:22:47.519Z,12.55
2019-03-20T19:25:17.401Z,14.70
2019-03-20T19:27:46.043Z,13.45
2019-03-20T19:30:23.146Z,14.20
2019-03-20T19:32:51.785Z,15.23
2019-03-20T19:35:20.432Z,14.25
2019-03-20T19:37:49.483Z,14.98
2019-03-20T19:40:19.624Z,14.58
2019-03-20T19:42:48.192Z,13.72
2019-03-20T19:45:17.675Z,13.58
2019-03-20T19:47:46.328Z,14.70
2019-03-20T19:50:19.754Z,13.95
2019-03-20T19:52:48.460Z,13.40
2019-03-20T19:55:17.292Z,13.35
2019-03-20T19:57:46.135Z,12.55
2019-03-20T20:00:22.737Z,13.95
2019-03-20T20:02:51.307Z,14.05
2019-03-20T20:05:19.947Z,13.93
2019-03-20T20:07:48.627Z,13.30
2019-03-20T20:10:17.960Z,14.63
2019-03-20T20:12:46.798Z,14.03
2019-03-20T20:15:23.974Z,13.45
2019-03-20T20:17:52.810Z,13.72
2019-03-20T20:20:25.402Z,15.18
2019-03-20T20:22:54.095Z,14.55
2019-03-20T20:25:22.603Z,15.15
2019-03-20T20:27:51.322Z,16.37
2019-03-20T20:30:20.755Z,15.15
2019-03-20T20:32:49.401Z,13.38
2019-03-20T20:35:18.242Z,13.40
2019-03-20T20:37:47.813Z,15.43
2019-03-20T20:40:18.329Z,14.80
2019-03-20T20:42:46.981Z,14.73
2019-03-20T20:45:15.681Z,14.87
2019-03-20T20:47:44.311Z,16.15
2019-03-20T20:50:14.924Z,15.10
2019-03-20T20:52:43.751Z,16.37
2019-03-20T20:55:14.195Z,16.05
2019-03-20T20:57:42.835Z,18.35
2019-03-20T21:00:17.373Z,16.85
2019-03-20T21:02:46.007Z,17.98
2019-03-20T21:05:14.650Z,19.70
2019-03-20T21:07:43.231Z,21.87
2019-03-20T21:10:14.088Z,20.23
2019-03-20T21:12:51.197Z,19.75
2019-03-20T21:15:34.145Z,16.23
2019-03-20T21:18:34.181Z,15.93
2019-03-20T21:21:02.839Z,14.93
2019-03-20T21:23:40.253Z,14.50
2019-03-20T21:26:14.741Z,15.60
2019-03-20T21:29:12.153Z,15.93
2019-03-20T21:31:44.190Z,14.83
2019-03-20T21:34:32.366Z,17.50
2019-03-20T21:37:12.550Z,14.85
2019-03-20T21:39:41.228Z,14.65
2019-03-20T21:42:34.250Z,15.03
2019-03-20T21:45:20.660Z,14.47
2019-03-20T21:47:49.150Z,16.35
2019-03-20T21:50:37.515Z,15.28
2019-03-20T21:53:06.019Z,16.12
2019-03-20T21:56:11.018Z,17.75
2019-03-20T21:58:42.570Z,15.90
2019-03-20T22:01:41.333Z,15.50
2019-03-20T22:04:09.839Z,16.52
2019-03-20T22:07:08.706Z,16.70
2019-03-20T22:09:55.111Z,17.27
2019-03-20T22:12:46.466Z,15.83
2019-03-20T22:15:26.927Z,17.30
2019-03-20T22:18:21.180Z,15.18
2019-03-20T22:21:01.517Z,15.35
2019-03-20T22:23:33.101Z,15.83
2019-03-20T22:26:25.683Z,15.63
2019-03-20T22:29:05.978Z,15.20
2019-03-20T22:31:37.527Z,14.87
2019-03-20T22:34:25.516Z,15.68
2019-03-20T22:36:55.831Z,15.85
2019-03-20T22:39:36.329Z,15.60
2019-03-20T22:42:13.509Z,16.37
2019-03-20T22:44:45.098Z,15.85
2019-03-20T22:47:39.016Z,16.10
2019-03-20T22:50:16.082Z,15.78
2019-03-20T22:52:50.646Z,15.65
2019-03-20T22:55:37.368Z,16.75
2019-03-20T22:58:18.006Z,16.93
2019-03-20T23:00:58.594Z,17.92
2019-03-20T23:03:33.409Z,17.70
2019-03-20T23:06:02.042Z,18.37
2019-03-20T23:08:30.714Z,17.52
2019-03-20T23:10:59.221Z,20.05
2019-03-20T23:13:27.779Z,19.67
2019-03-20T23:15:56.668Z,18.92
2019-03-20T23:18:25.167Z,19.65
2019-03-20T23:20:53.796Z,18.17
2019-03-20T23:23:22.632Z,19.95
2019-03-20T23:25:51.287Z,21.00
2019-03-20T23:28:19.784Z,19.42
2019-03-20T23:30:48.464Z,20.50
2019-03-20T23:33:17.125Z,20.55
2019-03-20T23:35:45.625Z,20.17
2019-03-20T23:38:14.161Z,19.52
2019-03-20T23:40:42.800Z,21.48
2019-03-20T23:43:13.035Z,21.90
2019-03-20T23:45:41.711Z,21.25
2019-03-20T23:48:25.320Z,17.00
2019-03-20T23:51:02.692Z,16.30
2019-03-20T23:53:32.333Z,15.80
2019-03-20T23:56:00.878Z,18.07
2019-03-20T23:58:29.511Z,16.97
